createdAt,value
2024-02-14T00:00:29.462Z,88.17
2024-02-14T00:01:29.453Z,88.17
2024-02-14T00:02:29.426Z,87.96
2024-02-14T00:03:29.419Z,87.96
2024-02-14T00:04:29.313Z,87.96
2024-02-14T00:05:29.292Z,88.07
2024-02-14T00:06:29.266Z,88.07
2024-02-14T00:07:29.202Z,88.07
2024-02-14T00:08:29.212Z,88.17
2024-02-14T00:09:29.097Z,88.17
2024-02-14T00:10:29.071Z,88.17
2024-02-14T00:11:29.045Z,88.07
2024-02-14T00:12:28.979Z,87.96
2024-02-14T00:13:29.034Z,87.96
2024-02-14T00:14:28.955Z,87.96
2024-02-14T00:15:28.871Z,87.86
2024-02-14T00:16:28.831Z,87.86
2024-02-14T00:17:28.885Z,87.96
2024-02-14T00:18:28.998Z,87.96
2024-02-14T00:19:28.779Z,88.07
2024-02-14T00:20:28.718Z,87.86
2024-02-14T00:21:28.625Z,87.86
2024-02-14T00:22:28.590Z,87.86
2024-02-14T00:23:28.597Z,87.86
2024-02-14T00:24:28.558Z,87.86
2024-02-14T00:25:28.482Z,87.86
2024-02-14T00:26:28.493Z,87.76
2024-02-14T00:27:28.409Z,87.65
2024-02-14T00:28:28.705Z,87.79
2024-02-14T00:29:28.395Z,87.79
2024-02-14T00:30:30.755Z,87.79
2024-02-14T00:31:28.197Z,88.00
2024-02-14T00:32:28.479Z,88.10
2024-02-14T00:33:28.301Z,88.21
2024-02-14T00:34:28.245Z,88.21
2024-02-14T00:35:28.229Z,88.10
2024-02-14T00:36:28.017Z,88.21
2024-02-14T00:37:27.968Z,88.31
2024-02-14T00:38:28.016Z,88.31
2024-02-14T00:39:27.908Z,88.21
2024-02-14T00:40:27.857Z,88.10
2024-02-14T00:41:27.894Z,88.00
2024-02-14T00:42:27.795Z,88.10
2024-02-14T00:43:27.744Z,88.31
2024-02-14T00:44:27.780Z,88.42
2024-02-14T00:45:27.653Z,88.52
2024-02-14T00:46:27.631Z,88.62
2024-02-14T00:47:27.610Z,88.52
2024-02-14T00:48:27.711Z,88.31
2024-02-14T00:49:27.777Z,88.21
2024-02-14T00:50:27.590Z,88.21
2024-02-14T00:51:27.393Z,88.21
2024-02-14T00:52:27.378Z,88.21
2024-02-14T00:53:27.391Z,88.10
2024-02-14T00:54:27.331Z,88.00
2024-02-14T00:55:27.252Z,87.79
2024-02-14T00:56:27.251Z,87.69
2024-02-14T00:57:27.245Z,87.69
2024-02-14T00:58:27.134Z,88.00
2024-02-14T00:59:27.169Z,88.31
2024-02-14T01:00:27.126Z,88.42
2024-02-14T01:01:27.006Z,88.31
2024-02-14T01:02:27.048Z,88.21
2024-02-14T01:03:26.966Z,88.21
2024-02-14T01:04:26.973Z,88.31
2024-02-14T01:05:26.911Z,88.31
2024-02-14T01:06:26.939Z,88.21
2024-02-14T01:07:26.770Z,88.10
2024-02-14T01:08:26.752Z,87.90
2024-02-14T01:09:26.667Z,87.90
2024-02-14T01:10:26.674Z,87.90
2024-02-14T01:11:26.675Z,87.90
2024-02-14T01:12:26.552Z,87.90
2024-02-14T01:13:26.500Z,87.90
2024-02-14T01:14:26.520Z,88.00
2024-02-14T01:15:26.454Z,88.00
2024-02-14T01:16:26.373Z,88.10
2024-02-14T01:17:26.480Z,88.00
2024-02-14T01:18:26.603Z,87.90
2024-02-14T01:19:26.243Z,87.90
2024-02-14T01:20:26.265Z,87.90
2024-02-14T01:21:26.136Z,87.79
2024-02-14T01:22:26.083Z,87.79
2024-02-14T01:23:26.079Z,87.79
2024-02-14T01:24:25.996Z,87.90
2024-02-14T01:25:25.984Z,88.00
2024-02-14T01:26:25.949Z,88.10
2024-02-14T01:27:25.880Z,88.10
2024-02-14T01:28:25.800Z,88.00
2024-02-14T01:29:25.840Z,88.00
2024-02-14T01:30:25.764Z,87.90
2024-02-14T01:31:25.653Z,87.79
2024-02-14T01:32:25.628Z,87.90
2024-02-14T01:33:25.722Z,87.90
2024-02-14T01:34:25.719Z,87.90
2024-02-14T01:35:25.530Z,87.90
2024-02-14T01:36:25.459Z,88.00
2024-02-14T01:37:25.413Z,88.00
2024-02-14T01:38:25.404Z,88.00
2024-02-14T01:39:25.322Z,88.00
2024-02-14T01:40:25.313Z,88.10
2024-02-14T01:41:25.287Z,88.21
2024-02-14T01:42:25.212Z,88.25
2024-02-14T01:43:25.138Z,88.21
2024-02-14T01:44:25.156Z,88.10
2024-02-14T01:45:25.110Z,88.00
2024-02-14T01:46:25.037Z,87.79
2024-02-14T01:47:25.032Z,87.90
2024-02-14T01:48:25.153Z,88.00
2024-02-14T01:49:24.965Z,87.90
2024-02-14T01:50:24.990Z,87.79
2024-02-14T01:51:24.830Z,87.90
2024-02-14T01:52:24.799Z,88.00
2024-02-14T01:53:24.781Z,87.90
2024-02-14T01:54:24.709Z,87.90
2024-02-14T01:55:24.744Z,87.90
2024-02-14T01:56:24.729Z,88.10
2024-02-14T01:57:24.579Z,88.21
2024-02-14T01:58:24.552Z,88.10
2024-02-14T01:59:24.533Z,88.10
2024-02-14T02:00:24.465Z,88.00
2024-02-14T02:01:24.496Z,88.10
2024-02-14T02:02:24.451Z,88.15
2024-02-14T02:03:24.420Z,88.31
2024-02-14T02:04:24.308Z,88.42
2024-02-14T02:05:24.305Z,88.62
2024-02-14T02:06:24.294Z,88.73
2024-02-14T02:07:24.208Z,88.73
2024-02-14T02:08:24.213Z,88.31
2024-02-14T02:09:24.120Z,88.31
2024-02-14T02:10:24.094Z,88.31
2024-02-14T02:11:24.129Z,88.42
2024-02-14T02:12:23.996Z,88.42
2024-02-14T02:13:23.956Z,88.42
2024-02-14T02:14:23.937Z,88.21
2024-02-14T02:15:23.881Z,88.10
2024-02-14T02:16:23.871Z,88.21
2024-02-14T02:17:23.827Z,88.21
2024-02-14T02:18:23.913Z,88.10
2024-02-14T02:19:23.918Z,88.21
2024-02-14T02:20:23.740Z,88.21
2024-02-14T02:21:23.794Z,88.10
2024-02-14T02:22:23.594Z,88.21
2024-02-14T02:23:23.555Z,88.25
2024-02-14T02:24:23.503Z,88.25
2024-02-14T02:25:23.460Z,88.46
2024-02-14T02:26:23.422Z,88.56
2024-02-14T02:27:23.450Z,88.35
2024-02-14T02:28:23.341Z,88.35
2024-02-14T02:29:23.292Z,88.46
2024-02-14T02:30:23.289Z,88.77
2024-02-14T02:31:23.205Z,88.77
2024-02-14T02:32:23.248Z,88.67
2024-02-14T02:33:23.371Z,88.77
2024-02-14T02:34:23.262Z,88.87
2024-02-14T02:35:23.046Z,88.87
2024-02-14T02:36:23.027Z,88.98
2024-02-14T02:37:22.995Z,89.08
2024-02-14T02:38:22.934Z,89.29
2024-02-14T02:39:22.883Z,89.18
2024-02-14T02:40:22.873Z,89.18
2024-02-14T02:41:22.809Z,89.08
2024-02-14T02:42:22.847Z,89.18
2024-02-14T02:43:22.723Z,89.18
2024-02-14T02:44:22.707Z,89.18
2024-02-14T02:45:22.665Z,89.08
2024-02-14T02:46:22.616Z,89.08
2024-02-14T02:47:22.728Z,89.29
2024-02-14T02:48:22.674Z,89.29
2024-02-14T02:49:22.619Z,89.50
2024-02-14T02:50:22.445Z,89.60
2024-02-14T02:51:22.409Z,89.81
2024-02-14T02:52:22.419Z,89.92
2024-02-14T02:53:22.321Z,89.92
2024-02-14T02:54:22.297Z,89.81
2024-02-14T02:55:22.245Z,89.70
2024-02-14T02:56:22.206Z,89.50
2024-02-14T02:57:22.172Z,89.29
2024-02-14T02:58:22.167Z,89.18
2024-02-14T02:59:22.078Z,89.18
2024-02-14T03:00:22.038Z,89.29
2024-02-14T03:01:22.004Z,89.39
2024-02-14T03:02:22.016Z,89.39
2024-02-14T03:03:21.923Z,89.18
2024-02-14T03:04:22.461Z,88.98
2024-02-14T03:05:21.874Z,88.98
2024-02-14T03:06:22.062Z,88.98
2024-02-14T03:07:22.049Z,88.98
2024-02-14T03:08:21.750Z,88.98
2024-02-14T03:09:21.697Z,89.08
2024-02-14T03:10:21.676Z,89.08
2024-02-14T03:11:21.629Z,89.08
2024-02-14T03:12:21.720Z,88.98
2024-02-14T03:13:21.578Z,88.98
2024-02-14T03:14:21.593Z,88.98
2024-02-14T03:15:21.493Z,88.98
2024-02-14T03:16:21.468Z,88.98
2024-02-14T03:17:21.466Z,88.87
2024-02-14T03:18:21.533Z,88.87
2024-02-14T03:19:21.359Z,88.87
2024-02-14T03:20:21.528Z,88.87
2024-02-14T03:21:21.329Z,88.77
2024-02-14T03:22:21.283Z,88.77
2024-02-14T03:23:21.208Z,88.87
2024-02-14T03:24:21.203Z,88.98
2024-02-14T03:25:21.385Z,88.87
2024-02-14T03:26:21.121Z,88.87
2024-02-14T03:27:21.195Z,88.98
2024-02-14T03:28:21.057Z,88.98
2024-02-14T03:29:20.992Z,88.98
2024-02-14T03:30:21.006Z,88.98
2024-02-14T03:31:20.915Z,88.98
2024-02-14T03:32:20.949Z,88.98
2024-02-14T03:33:21.032Z,88.98
2024-02-14T03:34:20.897Z,88.98
2024-02-14T03:35:20.777Z,88.98
2024-02-14T03:36:20.755Z,88.98
2024-02-14T03:37:20.743Z,89.18
2024-02-14T03:38:20.686Z,89.29
2024-02-14T03:39:20.731Z,89.39
2024-02-14T03:40:20.631Z,89.39
2024-02-14T03:41:20.598Z,89.29
2024-02-14T03:42:20.586Z,89.29
2024-02-14T03:43:20.531Z,89.29
2024-02-14T03:44:20.518Z,89.29
2024-02-14T03:45:20.467Z,89.29
2024-02-14T03:46:20.453Z,89.39
2024-02-14T03:47:20.431Z,89.50
2024-02-14T03:48:20.504Z,89.50
2024-02-14T03:49:20.386Z,89.39
2024-02-14T03:50:20.349Z,89.39
2024-02-14T03:51:20.294Z,89.29
2024-02-14T03:52:20.317Z,89.29
2024-02-14T03:53:20.225Z,89.33
2024-02-14T03:54:21.740Z,89.39
2024-02-14T03:55:20.179Z,89.54
2024-02-14T03:56:20.120Z,89.60
2024-02-14T03:57:20.124Z,89.70
2024-02-14T03:58:20.067Z,89.70
2024-02-14T03:59:20.025Z,89.60
2024-02-14T04:00:20.047Z,89.50
2024-02-14T04:01:19.958Z,89.50
2024-02-14T04:02:19.979Z,89.50
2024-02-14T04:03:19.947Z,89.39
2024-02-14T04:04:19.987Z,89.39
2024-02-14T04:05:19.816Z,89.39
2024-02-14T04:06:19.904Z,89.50
2024-02-14T04:07:19.770Z,89.50
2024-02-14T04:08:19.894Z,89.60
2024-02-14T04:09:19.768Z,89.64
2024-02-14T04:10:19.635Z,89.75
2024-02-14T04:11:19.609Z,89.85
2024-02-14T04:12:19.589Z,89.95
2024-02-14T04:13:19.533Z,90.06
2024-02-14T04:14:19.510Z,90.16
2024-02-14T04:15:19.508Z,90.26
2024-02-14T04:16:19.459Z,90.37
2024-02-14T04:17:19.437Z,90.37
2024-02-14T04:18:19.878Z,90.26
2024-02-14T04:19:19.532Z,90.26
2024-02-14T04:20:19.290Z,90.26
2024-02-14T04:21:19.307Z,90.26
2024-02-14T04:22:19.241Z,90.26
2024-02-14T04:23:19.162Z,90.16
2024-02-14T04:24:19.140Z,90.16
2024-02-14T04:25:19.088Z,90.16
2024-02-14T04:26:19.067Z,90.26
2024-02-14T04:27:19.048Z,90.47
2024-02-14T04:28:19.004Z,90.58
2024-02-14T04:29:18.941Z,90.58
2024-02-14T04:30:19.026Z,90.44
2024-02-14T04:31:18.875Z,90.44
2024-02-14T04:32:18.902Z,90.44
2024-02-14T04:34:18.909Z,90.33
2024-02-14T04:35:18.742Z,90.23
2024-02-14T04:36:18.724Z,90.23
2024-02-14T04:37:18.712Z,90.12
2024-02-14T04:38:18.643Z,90.12
2024-02-14T04:39:18.610Z,90.02
2024-02-14T04:40:18.576Z,90.02
2024-02-14T04:41:18.528Z,90.12
2024-02-14T04:42:18.669Z,90.02
2024-02-14T04:43:18.461Z,90.02
2024-02-14T04:44:18.434Z,90.02
2024-02-14T04:45:18.473Z,90.02
2024-02-14T04:46:18.374Z,89.92
2024-02-14T04:47:18.419Z,89.81
2024-02-14T04:48:18.439Z,89.56
2024-02-14T04:49:18.393Z,89.60
2024-02-14T04:50:18.257Z,89.70
2024-02-14T04:51:18.268Z,89.81
2024-02-14T04:52:18.215Z,89.92
2024-02-14T04:53:18.131Z,90.02
2024-02-14T04:54:18.110Z,90.12
2024-02-14T04:55:18.074Z,90.02
2024-02-14T04:56:18.036Z,89.98
2024-02-14T04:57:18.081Z,89.98
2024-02-14T04:58:17.969Z,89.87
2024-02-14T04:59:17.923Z,89.77
2024-02-14T05:00:18.039Z,89.77
2024-02-14T05:01:17.888Z,89.87
2024-02-14T05:02:17.882Z,89.77
2024-02-14T05:03:17.848Z,89.77
2024-02-14T05:04:17.994Z,89.67
2024-02-14T05:05:17.856Z,89.56
2024-02-14T05:06:17.757Z,89.46
2024-02-14T05:07:17.662Z,89.46
2024-02-14T05:08:17.611Z,89.46
2024-02-14T05:09:17.582Z,89.36
2024-02-14T05:10:17.516Z,89.36
2024-02-14T05:11:17.470Z,89.36
2024-02-14T05:12:17.558Z,89.36
2024-02-14T05:13:17.400Z,89.36
2024-02-14T05:14:17.447Z,89.36
2024-02-14T05:15:17.344Z,89.36
2024-02-14T05:16:17.287Z,89.36
2024-02-14T05:17:17.324Z,89.42
2024-02-14T05:18:17.367Z,89.31
2024-02-14T05:19:17.418Z,89.21
2024-02-14T05:20:17.140Z,89.21
2024-02-14T05:21:17.124Z,89.21
2024-02-14T05:22:17.089Z,89.11
2024-02-14T05:23:16.992Z,89.11
2024-02-14T05:24:17.198Z,89.21
2024-02-14T05:25:16.923Z,89.21
2024-02-14T05:26:16.875Z,89.21
2024-02-14T05:27:16.925Z,89.21
2024-02-14T05:28:16.805Z,89.11
2024-02-14T05:29:16.752Z,89.11
2024-02-14T05:30:16.789Z,89.11
2024-02-14T05:31:16.692Z,89.00
2024-02-14T05:32:16.708Z,89.21
2024-02-14T05:33:16.824Z,89.21
2024-02-14T05:34:16.805Z,89.31
2024-02-14T05:35:16.518Z,89.31
2024-02-14T05:36:16.570Z,89.21
2024-02-14T05:37:16.497Z,89.31
2024-02-14T05:38:16.425Z,89.31
2024-02-14T05:39:16.352Z,89.21
2024-02-14T05:40:16.307Z,89.21
2024-02-14T05:41:16.250Z,89.31
2024-02-14T05:42:16.296Z,89.31
2024-02-14T05:43:16.186Z,89.31
2024-02-14T05:44:16.131Z,89.21
2024-02-14T05:45:16.139Z,89.11
2024-02-14T05:46:16.064Z,88.90
2024-02-14T05:47:16.029Z,89.00
2024-02-14T05:48:16.214Z,89.21
2024-02-14T05:49:16.188Z,89.21
2024-02-14T05:50:15.912Z,89.21
2024-02-14T05:51:15.866Z,89.21
2024-02-14T05:52:15.808Z,89.31
2024-02-14T05:53:15.727Z,89.31
2024-02-14T05:54:15.764Z,89.52
2024-02-14T05:55:15.640Z,89.52
2024-02-14T05:56:15.667Z,89.52
2024-02-14T05:57:15.693Z,89.52
2024-02-14T05:58:15.535Z,89.42
2024-02-14T05:59:15.469Z,89.31
2024-02-14T06:00:15.531Z,89.31
2024-02-14T06:01:15.399Z,89.31
2024-02-14T06:02:15.376Z,89.42
2024-02-14T06:03:15.330Z,89.42
2024-02-14T06:04:15.321Z,89.42
2024-02-14T06:05:15.206Z,89.37
2024-02-14T06:06:15.335Z,89.27
2024-02-14T06:07:15.196Z,89.27
2024-02-14T06:08:15.078Z,89.17
2024-02-14T06:09:15.116Z,89.06
2024-02-14T06:10:14.987Z,88.96
2024-02-14T06:11:14.941Z,89.06
2024-02-14T06:12:15.004Z,89.17
2024-02-14T06:13:14.872Z,89.06
2024-02-14T06:14:14.807Z,89.17
2024-02-14T06:15:14.883Z,89.27
2024-02-14T06:16:14.741Z,89.27
2024-02-14T06:17:14.738Z,89.17
2024-02-14T06:18:14.680Z,89.06
2024-02-14T06:19:14.782Z,89.17
2024-02-14T06:20:14.583Z,89.17
2024-02-14T06:21:14.614Z,89.27
2024-02-14T06:22:14.650Z,89.37
2024-02-14T06:23:14.457Z,89.27
2024-02-14T06:24:14.481Z,89.17
2024-02-14T06:25:14.422Z,89.17
2024-02-14T06:26:14.300Z,89.06
2024-02-14T06:27:14.380Z,88.96
2024-02-14T06:28:14.216Z,88.96
2024-02-14T06:29:14.165Z,88.96
2024-02-14T06:30:14.253Z,88.96
2024-02-14T06:31:14.076Z,88.96
2024-02-14T06:32:14.137Z,89.06
2024-02-14T06:33:14.143Z,89.06
2024-02-14T06:34:14.131Z,88.96
2024-02-14T06:35:14.142Z,88.96
2024-02-14T06:36:13.910Z,88.96
2024-02-14T06:37:13.846Z,88.96
2024-02-14T06:38:13.776Z,88.85
2024-02-14T06:39:13.732Z,88.85
2024-02-14T06:40:13.696Z,88.85
2024-02-14T06:41:13.640Z,88.96
2024-02-14T06:42:13.666Z,88.85
2024-02-14T06:43:13.569Z,88.71
2024-02-14T06:44:13.502Z,88.75
2024-02-14T06:45:13.528Z,88.71
2024-02-14T06:46:13.428Z,88.61
2024-02-14T06:47:13.417Z,88.71
2024-02-14T06:48:13.454Z,88.71
2024-02-14T06:49:13.453Z,88.71
2024-02-14T06:50:13.255Z,88.61
2024-02-14T06:51:13.409Z,88.51
2024-02-14T06:52:13.179Z,88.51
2024-02-14T06:53:13.106Z,88.61
2024-02-14T06:54:13.108Z,88.71
2024-02-14T06:55:13.031Z,88.61
2024-02-14T06:56:12.998Z,88.61
2024-02-14T06:57:13.004Z,88.51
2024-02-14T06:58:13.001Z,88.40
2024-02-14T06:59:12.963Z,88.40
2024-02-14T07:00:12.886Z,88.51
2024-02-14T07:01:12.798Z,88.51
2024-02-14T07:02:14.205Z,88.40
2024-02-14T07:03:12.837Z,88.40
2024-02-14T07:04:12.714Z,88.40
2024-02-14T07:05:12.585Z,88.40
2024-02-14T07:06:12.657Z,88.40
2024-02-14T07:07:12.567Z,88.20
2024-02-14T07:08:12.454Z,88.09
2024-02-14T07:09:13.611Z,87.99
2024-02-14T07:10:12.378Z,88.09
2024-02-14T07:11:12.338Z,88.20
2024-02-14T07:12:12.441Z,88.20
2024-02-14T07:13:12.221Z,88.20
2024-02-14T07:14:12.201Z,88.05
2024-02-14T07:15:12.158Z,88.05
2024-02-14T07:16:12.231Z,88.15
2024-02-14T07:17:12.077Z,88.05
2024-02-14T07:18:12.083Z,88.05
2024-02-14T07:19:12.122Z,88.05
2024-02-14T07:20:11.921Z,88.05
2024-02-14T07:21:11.972Z,87.95
2024-02-14T07:22:11.874Z,87.84
2024-02-14T07:23:11.805Z,87.74
2024-02-14T07:24:11.799Z,87.63
2024-02-14T07:25:11.721Z,87.63
2024-02-14T07:26:11.685Z,87.53
2024-02-14T07:27:12.126Z,87.38
2024-02-14T07:28:11.608Z,86.97
2024-02-14T07:29:11.593Z,86.87
2024-02-14T07:30:11.559Z,86.87
2024-02-14T07:31:11.467Z,86.97
2024-02-14T07:32:11.395Z,87.07
2024-02-14T07:33:11.408Z,87.07
2024-02-14T07:34:11.482Z,87.07
2024-02-14T07:35:11.291Z,86.97
2024-02-14T07:36:11.226Z,86.87
2024-02-14T07:37:11.158Z,86.76
2024-02-14T07:38:11.141Z,86.76
2024-02-14T07:39:11.162Z,86.76
2024-02-14T07:40:11.032Z,86.55
2024-02-14T07:41:10.997Z,86.21
2024-02-14T07:42:10.982Z,86.21
2024-02-14T07:43:10.904Z,86.31
2024-02-14T07:44:10.837Z,86.10
2024-02-14T07:45:10.911Z,85.79
2024-02-14T07:46:10.739Z,85.69
2024-02-14T07:47:10.673Z,85.79
2024-02-14T07:48:10.735Z,85.79
2024-02-14T07:49:10.706Z,85.79
2024-02-14T07:50:10.535Z,85.69
2024-02-14T07:51:10.613Z,85.69
2024-02-14T07:52:10.439Z,85.58
2024-02-14T07:53:10.395Z,85.48
2024-02-14T07:54:10.589Z,85.48
2024-02-14T07:55:10.265Z,85.34
2024-02-14T07:56:10.241Z,85.34
2024-02-14T07:57:10.220Z,85.34
2024-02-14T07:58:10.167Z,85.55
2024-02-14T07:59:10.102Z,85.55
2024-02-14T08:00:10.082Z,85.44
2024-02-14T08:01:10.014Z,85.34
2024-02-14T08:02:09.960Z,85.34
2024-02-14T08:03:10.040Z,85.24
2024-02-14T08:04:09.872Z,85.34
2024-02-14T08:05:09.769Z,85.24
2024-02-14T08:06:09.882Z,85.24
2024-02-14T08:07:09.674Z,85.24
2024-02-14T08:08:09.620Z,85.24
2024-02-14T08:09:09.629Z,84.92
2024-02-14T08:10:09.466Z,84.82
2024-02-14T08:11:09.414Z,84.92
2024-02-14T08:12:09.385Z,84.78
2024-02-14T08:13:09.298Z,84.68
2024-02-14T08:14:09.224Z,84.88
2024-02-14T08:15:09.302Z,84.99
2024-02-14T08:16:09.115Z,84.88
2024-02-14T08:17:09.045Z,84.99
2024-02-14T08:18:10.431Z,84.99
2024-02-14T08:19:09.073Z,84.99
2024-02-14T08:20:08.915Z,84.99
2024-02-14T08:21:08.814Z,84.78
2024-02-14T08:22:08.726Z,84.99
2024-02-14T08:23:08.663Z,84.78
2024-02-14T08:24:08.686Z,84.58
2024-02-14T08:25:08.537Z,84.88
2024-02-14T08:26:08.514Z,85.09
2024-02-14T08:27:08.481Z,84.99
2024-02-14T08:28:08.360Z,84.88
2024-02-14T08:29:08.320Z,84.53
2024-02-14T08:30:08.274Z,84.64
2024-02-14T08:31:08.209Z,84.74
2024-02-14T08:32:08.139Z,84.74
2024-02-14T08:33:08.297Z,84.95
2024-02-14T08:34:08.248Z,84.95
2024-02-14T08:35:07.978Z,85.05
2024-02-14T08:36:07.995Z,84.95
2024-02-14T08:37:07.772Z,85.16
2024-02-14T08:38:07.745Z,85.47
2024-02-14T08:39:07.784Z,85.47
2024-02-14T08:40:07.603Z,85.68
2024-02-14T08:41:07.542Z,85.68
2024-02-14T08:42:07.542Z,85.57
2024-02-14T08:43:07.443Z,85.78
2024-02-14T08:44:07.360Z,85.99
2024-02-14T08:45:07.353Z,86.29
2024-02-14T08:46:07.223Z,86.81
2024-02-14T08:47:07.150Z,86.81
2024-02-14T08:48:07.325Z,86.81
2024-02-14T08:49:08.949Z,87.23
2024-02-14T08:50:07.042Z,87.43
2024-02-14T08:51:07.029Z,87.43
2024-02-14T08:52:06.845Z,87.74
2024-02-14T08:53:06.767Z,88.06
2024-02-14T08:54:06.744Z,87.95
2024-02-14T08:55:06.654Z,88.16
2024-02-14T08:56:06.585Z,88.36
2024-02-14T08:57:06.645Z,88.57
2024-02-14T08:58:06.472Z,88.67
2024-02-14T08:59:06.386Z,88.46
2024-02-14T09:00:06.360Z,88.26
2024-02-14T09:01:13.513Z,88.46
2024-02-14T09:02:06.192Z,88.88
2024-02-14T09:03:06.217Z,88.88
2024-02-14T09:04:06.122Z,88.88
2024-02-14T09:05:06.018Z,89.09
2024-02-14T09:06:06.039Z,89.25
2024-02-14T09:07:05.945Z,88.94
2024-02-14T09:08:05.821Z,88.84
2024-02-14T09:09:05.796Z,89.04
2024-02-14T09:10:05.698Z,89.15
2024-02-14T09:11:05.640Z,89.25
2024-02-14T09:12:05.844Z,89.36
2024-02-14T09:13:05.537Z,89.56
2024-02-14T09:14:05.441Z,89.46
2024-02-14T09:15:05.408Z,89.46
2024-02-14T09:16:05.329Z,89.36
2024-02-14T09:17:05.241Z,89.56
2024-02-14T09:18:05.292Z,89.56
2024-02-14T09:19:05.152Z,89.77
2024-02-14T09:20:05.166Z,89.77
2024-02-14T09:21:05.023Z,89.67
2024-02-14T09:22:04.917Z,89.77
2024-02-14T09:23:04.826Z,89.87
2024-02-14T09:24:05.007Z,90.08
2024-02-14T09:25:04.689Z,89.87
2024-02-14T09:26:04.629Z,89.87
2024-02-14T09:27:04.653Z,89.98
2024-02-14T09:28:04.535Z,89.98
2024-02-14T09:29:04.476Z,90.29
2024-02-14T09:30:04.407Z,90.29
2024-02-14T09:31:04.278Z,90.29
2024-02-14T09:32:04.214Z,90.45
2024-02-14T09:33:04.298Z,90.35
2024-02-14T09:34:04.296Z,90.35
2024-02-14T09:35:04.116Z,90.45
2024-02-14T09:36:04.016Z,90.56
2024-02-14T09:37:03.857Z,90.66
2024-02-14T09:38:03.800Z,91.07
2024-02-14T09:39:03.801Z,91.17
2024-02-14T09:40:03.695Z,91.17
2024-02-14T09:41:03.574Z,91.17
2024-02-14T09:42:03.656Z,91.17
2024-02-14T09:43:03.442Z,91.38
2024-02-14T09:44:03.366Z,91.38
2024-02-14T09:45:03.381Z,91.49
2024-02-14T09:46:03.241Z,91.49
2024-02-14T09:47:03.141Z,91.69
2024-02-14T09:48:03.222Z,91.90
2024-02-14T09:49:03.162Z,91.86
2024-02-14T09:50:02.930Z,91.65
2024-02-14T09:51:02.909Z,91.65
2024-02-14T09:52:02.772Z,91.86
2024-02-14T09:53:02.701Z,92.17
2024-02-14T09:54:02.709Z,92.48
2024-02-14T09:55:02.569Z,92.68
2024-02-14T09:56:02.514Z,92.99
2024-02-14T09:57:02.464Z,92.99
2024-02-14T09:58:02.336Z,92.99
2024-02-14T09:59:02.226Z,93.20
2024-02-14T10:00:02.197Z,93.30
2024-02-14T10:01:02.146Z,93.62
2024-02-14T10:02:02.032Z,93.93
2024-02-14T10:03:02.017Z,94.13
2024-02-14T10:04:01.863Z,94.23
2024-02-14T10:05:01.905Z,94.23
2024-02-14T10:06:01.838Z,94.29
2024-02-14T10:07:01.667Z,94.29
2024-02-14T10:08:01.585Z,94.60
2024-02-14T10:09:04.297Z,94.71
2024-02-14T10:10:01.420Z,94.92
2024-02-14T10:11:01.362Z,94.92
2024-02-14T10:12:01.375Z,95.12
2024-02-14T10:13:01.190Z,95.22
2024-02-14T10:14:01.171Z,95.32
2024-02-14T10:15:01.057Z,95.32
2024-02-14T10:16:00.948Z,95.32
2024-02-14T10:17:00.868Z,95.43
2024-02-14T10:18:00.900Z,95.43
2024-02-14T10:19:01.289Z,95.53
2024-02-14T10:20:00.716Z,95.64
2024-02-14T10:21:00.574Z,95.95
2024-02-14T10:22:00.468Z,95.95
2024-02-14T10:23:00.361Z,96.26
2024-02-14T10:24:00.352Z,96.36
2024-02-14T10:25:00.200Z,96.36
2024-02-14T10:26:00.129Z,96.47
2024-02-14T10:27:00.078Z,96.47
2024-02-14T10:27:59.967Z,96.56
2024-02-14T10:28:59.887Z,96.67
2024-02-14T10:29:59.865Z,96.88
2024-02-14T10:30:59.719Z,96.94
2024-02-14T10:31:59.648Z,96.98
2024-02-14T10:33:07.333Z,96.67
2024-02-14T10:33:59.662Z,96.73
2024-02-14T10:34:59.472Z,96.94
2024-02-14T10:36:02.449Z,97.04
2024-02-14T10:36:59.237Z,97.14
2024-02-14T10:37:59.157Z,97.34
2024-02-14T10:38:59.121Z,97.55
2024-02-14T10:39:59.011Z,97.66
2024-02-14T10:40:58.904Z,97.76
2024-02-14T10:41:58.901Z,97.76
2024-02-14T10:42:58.735Z,97.76
2024-02-14T10:43:58.674Z,97.76
2024-02-14T10:44:58.607Z,97.66
2024-02-14T10:45:58.492Z,97.66
2024-02-14T10:46:58.406Z,97.76
2024-02-14T10:47:58.461Z,97.76
2024-02-14T10:48:58.329Z,97.86
2024-02-14T10:49:58.249Z,98.02
2024-02-14T10:50:58.099Z,97.82
2024-02-14T10:51:57.986Z,97.72
2024-02-14T10:52:57.921Z,97.72
2024-02-14T10:53:57.852Z,97.92
2024-02-14T10:54:57.746Z,98.02
2024-02-14T10:55:57.632Z,98.13
2024-02-14T10:56:57.545Z,98.13
2024-02-14T10:57:57.461Z,98.02
2024-02-14T10:58:57.389Z,98.13
2024-02-14T10:59:57.301Z,98.23
2024-02-14T11:00:57.226Z,98.23
2024-02-14T11:01:57.140Z,98.33
2024-02-14T11:02:57.067Z,98.44
2024-02-14T11:03:57.090Z,98.44
2024-02-14T11:04:56.811Z,98.44
2024-02-14T11:05:56.857Z,98.44
2024-02-14T11:06:56.642Z,98.44
2024-02-14T11:07:56.556Z,98.44
2024-02-14T11:08:56.518Z,98.44
2024-02-14T11:09:56.411Z,98.44
2024-02-14T11:10:56.282Z,98.54
2024-02-14T11:11:56.203Z,98.50
2024-02-14T11:12:56.104Z,98.39
2024-02-14T11:13:56.047Z,98.39
2024-02-14T11:14:55.961Z,98.29
2024-02-14T11:15:55.871Z,98.29
2024-02-14T11:16:55.730Z,98.29
2024-02-14T11:17:55.773Z,98.39
2024-02-14T11:18:55.662Z,98.29
2024-02-14T11:19:55.719Z,98.08
2024-02-14T11:20:55.415Z,97.98
2024-02-14T11:21:55.299Z,98.03
2024-02-14T11:22:55.177Z,97.94
2024-02-14T11:23:55.206Z,97.94
2024-02-14T11:24:54.998Z,97.94
2024-02-14T11:25:54.921Z,98.03
2024-02-14T11:26:54.881Z,98.03
2024-02-14T11:27:54.726Z,97.83
2024-02-14T11:28:54.671Z,97.63
2024-02-14T11:29:54.571Z,97.42
2024-02-14T11:30:54.434Z,97.42
2024-02-14T11:31:54.342Z,97.27
2024-02-14T11:32:54.320Z,97.21
2024-02-14T11:33:54.395Z,97.06
2024-02-14T11:34:54.101Z,97.17
2024-02-14T11:35:53.980Z,97.27
2024-02-14T11:36:53.829Z,97.17
2024-02-14T11:37:53.716Z,97.27
2024-02-14T11:38:53.658Z,97.17
2024-02-14T11:39:53.543Z,97.17
2024-02-14T11:40:55.676Z,97.17
2024-02-14T11:41:53.402Z,97.17
2024-02-14T11:42:53.221Z,97.27
2024-02-14T11:43:53.130Z,97.48
2024-02-14T11:44:53.110Z,97.58
2024-02-14T11:45:52.931Z,97.38
2024-02-14T11:46:52.816Z,97.38
2024-02-14T11:47:52.826Z,97.38
2024-02-14T11:48:52.799Z,97.52
2024-02-14T11:49:52.550Z,97.73
2024-02-14T11:50:52.532Z,97.94
2024-02-14T11:51:52.322Z,98.14
2024-02-14T11:52:52.218Z,98.35
2024-02-14T11:53:52.174Z,98.45
2024-02-14T11:54:52.026Z,98.66
2024-02-14T11:55:51.932Z,98.66
2024-02-14T11:56:51.870Z,98.76
2024-02-14T11:57:51.734Z,98.76
2024-02-14T11:58:51.663Z,98.86
2024-02-14T11:59:51.575Z,98.97
2024-02-14T12:00:51.434Z,99.07
2024-02-14T12:01:51.328Z,99.07
2024-02-14T12:02:51.216Z,99.07
2024-02-14T12:03:51.109Z,98.97
2024-02-14T12:04:51.034Z,98.97
2024-02-14T12:05:51.007Z,98.86
2024-02-14T12:06:50.840Z,98.97
2024-02-14T12:07:50.711Z,98.97
2024-02-14T12:08:50.580Z,98.92
2024-02-14T12:09:50.493Z,98.92
2024-02-14T12:10:50.468Z,98.82
2024-02-14T12:11:50.324Z,98.82
2024-02-14T12:12:50.240Z,98.92
2024-02-14T12:13:50.105Z,98.92
2024-02-14T12:14:49.994Z,99.02
2024-02-14T12:15:49.838Z,99.13
2024-02-14T12:16:49.736Z,99.13
2024-02-14T12:17:49.800Z,99.23
2024-02-14T12:18:49.814Z,99.23
2024-02-14T12:19:49.921Z,99.23
2024-02-14T12:20:50.802Z,99.23
2024-02-14T12:21:49.237Z,99.23
2024-02-14T12:22:49.131Z,99.33
2024-02-14T12:23:49.093Z,99.43
2024-02-14T12:24:48.959Z,99.43
2024-02-14T12:25:48.880Z,99.54
2024-02-14T12:26:48.787Z,99.74
2024-02-14T12:27:48.637Z,99.85
2024-02-14T12:28:48.549Z,99.85
2024-02-14T12:29:48.668Z,99.85
2024-02-14T12:30:48.309Z,99.85
2024-02-14T12:31:48.217Z,99.95
2024-02-14T12:32:48.143Z,99.99
2024-02-14T12:33:48.121Z,99.95
2024-02-14T12:34:47.990Z,99.99
2024-02-14T12:35:47.947Z,99.99
2024-02-14T12:36:47.674Z,99.99
2024-02-14T12:37:47.598Z,99.99
2024-02-14T12:38:47.564Z,99.99
2024-02-14T12:39:47.413Z,99.99
2024-02-14T12:40:47.286Z,99.99
2024-02-14T12:41:47.190Z,99.99
2024-02-14T12:42:47.074Z,99.99
2024-02-14T12:43:46.971Z,99.99
2024-02-14T12:44:46.883Z,99.99
2024-02-14T12:45:46.745Z,99.99
2024-02-14T12:46:46.636Z,99.99
2024-02-14T12:47:46.606Z,99.99
2024-02-14T12:48:46.548Z,99.99
2024-02-14T12:49:46.417Z,99.99
2024-02-14T12:50:46.308Z,99.99
2024-02-14T12:51:46.105Z,99.99
2024-02-14T12:52:46.003Z,99.99